createdAt,value
2022-10-15T00:01:50.527Z,10.43
2022-10-15T00:04:19.078Z,7.70
2022-10-15T00:06:47.681Z,4.67
2022-10-15T00:09:16.169Z,7.37
2022-10-15T00:11:44.689Z,3.03
2022-10-15T00:14:14.680Z,2.53
2022-10-15T00:16:43.192Z,4.57
2022-10-15T00:19:12.016Z,6.23
2022-10-15T00:21:41.675Z,3.57
2022-10-15T00:24:10.242Z,4.33
2022-10-15T00:26:38.728Z,4.50
2022-10-15T00:29:07.349Z,3.00
2022-10-15T00:31:38.200Z,3.73
2022-10-15T00:34:07.576Z,5.30
2022-10-15T00:36:37.870Z,4.10
2022-10-15T00:39:07.995Z,4.20
2022-10-15T00:41:41.293Z,4.33
2022-10-15T00:44:48.853Z,4.67
2022-10-15T00:47:25.190Z,4.23
2022-10-15T00:49:59.965Z,3.10
2022-10-15T00:52:35.667Z,4.00
2022-10-15T00:55:09.598Z,5.93
2022-10-15T00:57:38.834Z,4.73
2022-10-15T01:00:11.152Z,6.80
2022-10-15T01:02:42.714Z,3.07
2022-10-15T01:05:11.924Z,4.80
2022-10-15T01:07:41.839Z,5.37
2022-10-15T01:10:12.161Z,4.27
2022-10-15T01:12:54.082Z,3.37
2022-10-15T01:15:27.153Z,2.90
2022-10-15T01:18:00.995Z,6.63
2022-10-15T01:20:58.242Z,4.03
2022-10-15T01:23:53.044Z,3.63
2022-10-15T01:26:45.452Z,5.03
2022-10-15T01:29:28.702Z,4.07
2022-10-15T01:32:04.158Z,4.60
2022-10-15T01:34:40.478Z,3.77
2022-10-15T01:37:12.409Z,5.07
2022-10-15T01:39:45.673Z,3.57
2022-10-15T01:42:18.483Z,8.63
2022-10-15T01:44:51.957Z,5.83
2022-10-15T01:47:47.943Z,4.97
2022-10-15T01:50:22.347Z,6.27
2022-10-15T01:52:52.875Z,4.03
2022-10-15T01:55:23.954Z,4.73
2022-10-15T01:57:56.656Z,3.53
2022-10-15T02:00:27.028Z,4.93
2022-10-15T02:03:01.072Z,4.10
2022-10-15T02:05:35.283Z,6.87
2022-10-15T02:08:14.620Z,4.07
2022-10-15T02:10:51.269Z,4.93
2022-10-15T02:13:27.052Z,6.47
2022-10-15T02:16:07.859Z,4.87
2022-10-15T02:18:42.487Z,3.13
2022-10-15T02:21:15.794Z,5.83
2022-10-15T02:23:51.085Z,4.30
2022-10-15T02:26:21.227Z,6.97
2022-10-15T02:28:55.109Z,3.97
2022-10-15T02:31:26.049Z,4.50
2022-10-15T02:33:59.288Z,5.43
2022-10-15T02:36:28.391Z,6.40
2022-10-15T02:38:58.228Z,3.30
2022-10-15T02:41:28.135Z,3.70
2022-10-15T02:43:57.943Z,4.50
2022-10-15T02:46:26.542Z,5.03
2022-10-15T02:48:56.453Z,5.03
2022-10-15T02:51:24.973Z,4.47
2022-10-15T02:53:54.184Z,3.37
2022-10-15T02:56:22.765Z,4.10
2022-10-15T02:58:51.303Z,4.93
2022-10-15T03:01:21.464Z,5.40
2022-10-15T03:03:50.235Z,8.53
2022-10-15T03:06:20.632Z,3.10
2022-10-15T03:08:50.271Z,4.33
2022-10-15T03:11:18.798Z,4.43
2022-10-15T03:13:47.742Z,4.73
2022-10-15T03:16:18.476Z,3.80
2022-10-15T03:18:49.354Z,3.50
2022-10-15T03:21:21.426Z,3.40
2022-10-15T03:23:50.100Z,3.60
2022-10-15T03:26:22.349Z,4.87
2022-10-15T03:28:52.318Z,4.37
2022-10-15T03:31:33.739Z,3.60
2022-10-15T03:34:04.550Z,4.60
2022-10-15T03:36:34.786Z,3.67
2022-10-15T03:39:06.051Z,4.03
2022-10-15T03:41:34.798Z,3.47
2022-10-15T03:44:03.546Z,7.67
2022-10-15T03:46:33.302Z,4.47
2022-10-15T03:49:02.681Z,8.17
2022-10-15T03:51:31.946Z,5.87
2022-10-15T03:54:09.930Z,3.87
2022-10-15T03:56:46.410Z,3.30
2022-10-15T03:59:30.395Z,3.90
2022-10-15T04:02:01.907Z,4.80
2022-10-15T04:04:31.274Z,4.47
2022-10-15T04:07:00.490Z,6.60
2022-10-15T04:09:31.269Z,3.87
2022-10-15T04:12:20.226Z,7.43
2022-10-15T04:14:50.235Z,5.37
2022-10-15T04:17:19.504Z,10.37
2022-10-15T04:19:48.145Z,14.33
2022-10-15T04:22:17.630Z,6.23
2022-10-15T04:24:55.402Z,4.00
2022-10-15T04:27:29.507Z,3.03
2022-10-15T04:30:08.896Z,3.97
2022-10-15T04:32:41.351Z,3.47
2022-10-15T04:35:10.486Z,6.57
2022-10-15T04:37:59.700Z,5.63
2022-10-15T04:40:30.589Z,4.03
2022-10-15T04:42:59.162Z,5.00
2022-10-15T04:45:27.667Z,4.97
2022-10-15T04:47:57.908Z,3.70
2022-10-15T04:50:27.022Z,11.13
2022-10-15T04:53:14.395Z,4.00
2022-10-15T04:55:48.508Z,4.60
2022-10-15T04:58:17.546Z,5.00
2022-10-15T05:00:46.078Z,4.50
2022-10-15T05:03:29.992Z,5.50
2022-10-15T05:06:04.304Z,4.37
2022-10-15T05:08:35.341Z,6.00
2022-10-15T05:11:17.448Z,4.23
2022-10-15T05:13:46.477Z,5.97
2022-10-15T05:16:16.857Z,4.30
2022-10-15T05:18:46.815Z,10.53
2022-10-15T05:21:16.231Z,10.63
2022-10-15T05:23:47.363Z,10.10
2022-10-15T05:26:27.954Z,6.57
2022-10-15T05:28:58.318Z,7.07
2022-10-15T05:31:32.201Z,7.10
2022-10-15T05:34:09.752Z,6.30
2022-10-15T05:36:46.417Z,4.27
2022-10-15T05:39:17.019Z,5.23
2022-10-15T05:41:49.563Z,7.53
2022-10-15T05:44:18.333Z,6.83
2022-10-15T05:46:46.837Z,9.00
2022-10-15T05:49:21.449Z,6.23
2022-10-15T05:51:58.525Z,7.57
2022-10-15T05:54:43.283Z,4.67
2022-10-15T05:57:13.723Z,6.30
2022-10-15T05:59:42.159Z,7.07
2022-10-15T06:02:16.209Z,6.17
2022-10-15T06:04:44.918Z,6.03
2022-10-15T06:07:13.367Z,4.83
2022-10-15T06:09:41.802Z,5.07
2022-10-15T06:12:10.227Z,9.83
2022-10-15T06:14:40.071Z,15.53
2022-10-15T06:17:08.651Z,6.53
2022-10-15T06:19:37.123Z,7.50
2022-10-15T06:22:05.594Z,9.30
2022-10-15T06:24:34.085Z,7.57
2022-10-15T06:27:03.080Z,5.80
2022-10-15T06:29:31.594Z,7.30
2022-10-15T06:32:04.544Z,12.93
2022-10-15T06:34:33.902Z,10.17
2022-10-15T06:37:02.321Z,11.50
2022-10-15T06:39:30.828Z,11.27
2022-10-15T06:41:59.261Z,8.53
2022-10-15T06:44:40.004Z,9.27
2022-10-15T06:47:10.216Z,13.13
2022-10-15T06:49:38.674Z,8.83
2022-10-15T06:52:07.299Z,11.87
2022-10-15T06:54:35.765Z,11.50
2022-10-15T06:57:07.148Z,8.33
2022-10-15T06:59:38.586Z,9.23
2022-10-15T07:02:12.035Z,8.97
2022-10-15T07:04:40.654Z,7.37
2022-10-15T07:07:09.147Z,10.20
2022-10-15T07:09:37.733Z,12.63
2022-10-15T07:12:07.045Z,11.13
2022-10-15T07:14:39.996Z,8.47
2022-10-15T07:17:12.287Z,10.20
2022-10-15T07:19:40.762Z,9.43
2022-10-15T07:22:09.265Z,3.63
2022-10-15T07:24:37.912Z,5.90
2022-10-15T07:27:08.327Z,16.73
2022-10-15T07:29:47.147Z,31.60
2022-10-15T07:32:17.000Z,10.57
2022-10-15T07:34:45.556Z,7.73
2022-10-15T07:37:14.018Z,8.47
2022-10-15T07:39:42.472Z,5.40
2022-10-15T07:42:10.926Z,7.30
2022-10-15T07:44:39.403Z,5.87
2022-10-15T07:47:11.594Z,8.87
2022-10-15T07:49:41.503Z,5.67
2022-10-15T07:52:10.208Z,12.33
2022-10-15T07:54:38.824Z,6.70
2022-10-15T07:57:08.447Z,4.73
2022-10-15T07:59:37.793Z,7.90
2022-10-15T08:02:06.339Z,9.33
2022-10-15T08:04:35.726Z,7.07
2022-10-15T08:07:07.936Z,7.10
2022-10-15T08:09:38.964Z,10.20
2022-10-15T08:12:07.824Z,8.37
2022-10-15T08:14:37.706Z,19.63
2022-10-15T08:17:07.722Z,8.73
2022-10-15T08:19:36.416Z,13.07
2022-10-15T08:22:06.277Z,23.40
2022-10-15T08:24:36.444Z,11.53
2022-10-15T08:27:05.139Z,8.50
2022-10-15T08:29:42.609Z,12.47
2022-10-15T08:32:15.105Z,11.13
2022-10-15T08:34:43.594Z,15.27
2022-10-15T08:39:46.922Z,11.77
2022-10-15T08:42:21.465Z,8.20
2022-10-15T08:44:54.860Z,11.90
2022-10-15T08:47:32.365Z,14.60
2022-10-15T08:50:03.774Z,7.33
2022-10-15T08:52:43.705Z,8.37
2022-10-15T08:55:14.866Z,14.30
2022-10-15T08:57:47.475Z,5.90
2022-10-15T09:00:21.489Z,9.27
2022-10-15T09:02:57.636Z,6.67
2022-10-15T09:05:37.610Z,7.77
2022-10-15T09:08:18.594Z,9.87
2022-10-15T09:10:51.299Z,11.97
2022-10-15T09:13:27.139Z,6.30
2022-10-15T09:16:01.465Z,6.10
2022-10-15T09:18:34.909Z,5.27
2022-10-15T09:21:05.408Z,4.23
2022-10-15T09:23:36.553Z,6.00
2022-10-15T09:26:14.387Z,6.20
2022-10-15T09:28:48.820Z,4.57
2022-10-15T09:31:29.322Z,4.30
2022-10-15T09:34:04.357Z,3.63
2022-10-15T09:36:39.313Z,7.80
2022-10-15T09:39:27.832Z,9.40
2022-10-15T09:42:07.456Z,5.10
2022-10-15T09:44:40.542Z,17.13
2022-10-15T09:47:19.519Z,15.30
2022-10-15T09:49:48.964Z,4.47
2022-10-15T09:52:23.004Z,6.40
2022-10-15T09:55:02.739Z,6.40
2022-10-15T09:57:34.667Z,3.90
2022-10-15T10:00:07.985Z,7.07
2022-10-15T10:02:44.480Z,6.77
2022-10-15T10:05:30.317Z,5.80
2022-10-15T10:08:10.702Z,10.60
2022-10-15T10:10:44.426Z,4.80
2022-10-15T10:13:25.428Z,4.10
2022-10-15T10:15:58.483Z,2.97
2022-10-15T10:18:29.060Z,4.10
2022-10-15T10:21:00.028Z,10.17
2022-10-15T10:23:34.759Z,4.97
2022-10-15T10:26:07.343Z,3.97
2022-10-15T10:28:40.627Z,4.17
2022-10-15T10:31:12.931Z,4.40
2022-10-15T10:33:47.854Z,7.67
2022-10-15T10:36:27.048Z,5.70
2022-10-15T10:39:03.464Z,5.23
2022-10-15T10:41:51.783Z,2.83
2022-10-15T10:44:24.564Z,3.63
2022-10-15T10:47:14.146Z,3.07
2022-10-15T10:49:44.312Z,4.83
2022-10-15T10:52:28.553Z,3.60
2022-10-15T10:55:01.585Z,4.73
2022-10-15T10:57:41.636Z,3.97
2022-10-15T11:00:16.976Z,2.93
2022-10-15T11:02:50.303Z,3.83
2022-10-15T11:05:26.389Z,25.93
2022-10-15T11:08:08.127Z,9.47
2022-10-15T11:10:43.316Z,2.83
2022-10-15T11:13:41.488Z,4.23
2022-10-15T11:16:16.797Z,3.50
2022-10-15T11:18:59.179Z,3.80
2022-10-15T11:21:41.970Z,4.97
2022-10-15T11:24:17.690Z,2.80
2022-10-15T11:27:12.995Z,3.20
2022-10-15T11:29:55.003Z,5.03
2022-10-15T11:33:01.709Z,7.33
2022-10-15T11:35:54.172Z,3.50
2022-10-15T11:38:31.595Z,4.57
2022-10-15T11:41:18.062Z,5.10
2022-10-15T11:44:03.188Z,6.37
2022-10-15T11:46:53.707Z,3.67
2022-10-15T11:52:26.317Z,3.87
2022-10-15T11:55:03.463Z,4.00
2022-10-15T11:57:35.402Z,6.63
2022-10-15T12:00:16.992Z,3.57
2022-10-15T12:02:47.880Z,3.27
2022-10-15T12:05:22.975Z,3.93
2022-10-15T12:07:51.912Z,7.13
2022-10-15T12:10:37.594Z,5.47
2022-10-15T12:13:11.104Z,4.10
2022-10-15T12:15:48.848Z,4.00
2022-10-15T12:18:26.005Z,2.40
2022-10-15T12:20:55.837Z,8.23
2022-10-15T12:23:26.678Z,9.10
2022-10-15T12:25:56.139Z,9.27
2022-10-15T12:28:28.095Z,6.80
2022-10-15T12:31:02.808Z,7.57
2022-10-15T12:33:36.739Z,4.13
2022-10-15T12:36:09.990Z,3.67
2022-10-15T12:38:41.190Z,6.10
2022-10-15T12:41:12.857Z,3.67
2022-10-15T12:43:44.313Z,3.30
2022-10-15T12:46:14.934Z,7.33
2022-10-15T12:48:49.576Z,4.23
2022-10-15T12:51:39.500Z,3.23
2022-10-15T12:54:37.435Z,4.53
2022-10-15T12:57:52.916Z,5.93
2022-10-15T13:00:44.879Z,4.53
2022-10-15T13:03:37.658Z,6.67
2022-10-15T13:06:26.042Z,6.10
2022-10-15T13:08:59.925Z,10.00
2022-10-15T13:11:31.315Z,8.07
2022-10-15T13:14:12.526Z,9.03
2022-10-15T13:16:44.953Z,7.30
2022-10-15T13:19:20.770Z,6.73
2022-10-15T13:21:58.650Z,17.00
2022-10-15T13:24:32.401Z,8.10
2022-10-15T13:27:02.325Z,5.50
2022-10-15T13:29:30.778Z,5.07
2022-10-15T13:31:59.580Z,4.57
2022-10-15T13:34:30.639Z,5.20
2022-10-15T13:37:02.127Z,4.63
2022-10-15T13:42:10.647Z,11.93
2022-10-15T13:44:39.294Z,2.97
2022-10-15T13:47:26.359Z,4.10
2022-10-15T13:50:18.701Z,5.93
2022-10-15T13:52:52.399Z,3.93
2022-10-15T13:55:25.565Z,8.33
2022-10-15T13:58:01.419Z,3.23
2022-10-15T14:00:33.793Z,4.00
2022-10-15T14:03:19.882Z,3.23
2022-10-15T14:05:50.358Z,5.17
2022-10-15T14:08:26.557Z,4.70
2022-10-15T14:10:58.336Z,3.50
2022-10-15T14:13:27.271Z,5.30
2022-10-15T14:18:41.099Z,4.53
2022-10-15T14:21:15.305Z,4.73
2022-10-15T14:23:47.613Z,3.53
2022-10-15T14:26:17.007Z,6.50
2022-10-15T14:28:52.134Z,5.83
2022-10-15T14:31:33.855Z,3.20
2022-10-15T14:34:02.862Z,6.63
2022-10-15T14:36:32.330Z,9.83
2022-10-15T14:39:39.082Z,10.83
2022-10-15T14:42:27.011Z,4.50
2022-10-15T14:44:56.071Z,5.80
2022-10-15T14:47:27.522Z,6.57
2022-10-15T14:50:00.667Z,6.00
2022-10-15T14:52:30.643Z,8.33
2022-10-15T14:55:08.169Z,6.57
2022-10-15T14:57:41.480Z,5.53
2022-10-15T15:00:17.488Z,5.33
2022-10-15T15:02:46.086Z,4.33
2022-10-15T15:05:22.780Z,5.53
2022-10-15T15:07:51.700Z,6.33
2022-10-15T15:10:21.984Z,5.40
2022-10-15T15:12:52.980Z,5.27
2022-10-15T15:15:23.154Z,7.17
2022-10-15T15:17:51.929Z,6.43
2022-10-15T15:20:21.237Z,9.13
2022-10-15T15:22:51.248Z,6.93
2022-10-15T15:25:22.716Z,5.70
2022-10-15T15:27:51.209Z,4.80
2022-10-15T15:30:22.113Z,9.70
2022-10-15T15:32:50.602Z,10.97
2022-10-15T15:35:24.501Z,9.50
2022-10-15T15:37:53.378Z,4.03
2022-10-15T15:40:23.581Z,10.40
2022-10-15T15:42:52.046Z,8.27
2022-10-15T15:45:23.366Z,16.67
2022-10-15T15:47:52.450Z,10.37
2022-10-15T15:50:22.654Z,21.80
2022-10-15T15:52:51.360Z,13.13
2022-10-15T15:55:19.804Z,11.97
2022-10-15T15:57:49.747Z,9.97
2022-10-15T16:00:18.771Z,8.43
2022-10-15T16:02:47.305Z,7.87
2022-10-15T16:05:17.839Z,6.27
2022-10-15T16:07:46.572Z,10.33
2022-10-15T16:10:15.001Z,7.77
2022-10-15T16:12:44.766Z,16.63
2022-10-15T16:15:16.952Z,7.90
2022-10-15T16:17:48.376Z,11.17
2022-10-15T16:20:17.071Z,20.27
2022-10-15T16:22:45.524Z,38.43
2022-10-15T16:25:13.949Z,23.37
2022-10-15T16:27:45.553Z,15.47
2022-10-15T16:30:15.468Z,13.43
2022-10-15T16:32:44.006Z,20.60
2022-10-15T16:35:12.488Z,14.30
2022-10-15T16:37:40.915Z,15.37
2022-10-15T16:40:10.580Z,16.77
2022-10-15T16:42:39.063Z,19.63
2022-10-15T16:45:08.504Z,17.17
2022-10-15T16:47:38.471Z,16.70
2022-10-15T16:50:08.005Z,37.30
2022-10-15T16:52:36.750Z,17.03
2022-10-15T16:55:05.690Z,7.73
2022-10-15T16:57:34.382Z,10.03
2022-10-15T17:00:02.818Z,8.37
2022-10-15T17:02:31.432Z,15.27
2022-10-15T17:05:01.280Z,9.77
2022-10-15T17:07:29.714Z,8.00
2022-10-15T17:09:58.151Z,8.17
2022-10-15T17:12:26.993Z,6.17
2022-10-15T17:14:55.700Z,10.67
2022-10-15T17:17:24.186Z,7.10
2022-10-15T17:19:52.747Z,13.80
2022-10-15T17:22:22.755Z,10.40
2022-10-15T17:24:51.409Z,15.30
2022-10-15T17:27:20.335Z,15.13
2022-10-15T17:29:48.983Z,12.30
2022-10-15T17:32:17.422Z,7.63
2022-10-15T17:34:45.908Z,15.23
2022-10-15T17:37:14.976Z,12.07
2022-10-15T17:39:45.271Z,14.30
2022-10-15T17:42:15.731Z,15.27
2022-10-15T17:44:44.224Z,13.87
2022-10-15T17:47:13.484Z,19.80
2022-10-15T17:49:42.655Z,14.77
2022-10-15T17:52:11.342Z,9.53
2022-10-15T17:54:39.781Z,10.40
2022-10-15T17:57:09.640Z,11.47
2022-10-15T17:59:39.956Z,12.90
2022-10-15T18:02:08.427Z,13.43
2022-10-15T18:04:41.155Z,14.70
2022-10-15T18:07:09.685Z,8.30
2022-10-15T18:09:38.093Z,9.13
2022-10-15T18:12:07.604Z,10.27
2022-10-15T18:14:37.433Z,7.43
2022-10-15T18:17:06.408Z,11.63
2022-10-15T18:19:34.883Z,12.83
2022-10-15T18:22:03.350Z,13.50
2022-10-15T18:24:33.117Z,10.17
2022-10-15T18:27:06.212Z,8.93
2022-10-15T18:29:36.523Z,16.27
2022-10-15T18:32:05.075Z,9.33
2022-10-15T18:34:34.391Z,13.23
2022-10-15T18:37:02.829Z,8.93
2022-10-15T18:39:31.292Z,9.80
2022-10-15T18:41:59.978Z,20.17
2022-10-15T18:44:29.384Z,18.63
2022-10-15T18:46:59.248Z,14.17
2022-10-15T18:49:27.857Z,31.90
2022-10-15T18:51:56.352Z,16.93
2022-10-15T18:54:25.368Z,14.17
2022-10-15T18:56:53.958Z,11.53
2022-10-15T18:59:23.191Z,9.43
2022-10-15T19:01:53.748Z,10.00
2022-10-15T19:04:24.521Z,51.87
2022-10-15T19:06:54.699Z,30.30
2022-10-15T19:09:26.184Z,9.87
2022-10-15T19:11:57.002Z,11.83
2022-10-15T19:14:28.144Z,23.20
2022-10-15T19:16:58.036Z,15.63
2022-10-15T19:19:28.148Z,14.40
2022-10-15T19:21:58.730Z,13.63
2022-10-15T19:24:27.283Z,11.40
2022-10-15T19:26:55.931Z,11.13
2022-10-15T19:29:24.682Z,8.60
2022-10-15T19:31:54.097Z,12.97
2022-10-15T19:34:23.760Z,11.10
2022-10-15T19:36:53.613Z,9.50
2022-10-15T19:39:24.755Z,7.80
2022-10-15T19:41:53.972Z,5.47
2022-10-15T19:44:25.785Z,7.00
2022-10-15T19:46:55.888Z,10.97
2022-10-15T19:49:25.593Z,10.00
2022-10-15T19:51:55.799Z,13.87
2022-10-15T19:56:53.665Z,10.93
2022-10-15T19:59:22.173Z,17.37
2022-10-15T20:01:50.787Z,10.47
2022-10-15T20:04:20.944Z,77.63
2022-10-15T20:06:52.654Z,34.53
2022-10-15T20:09:23.423Z,9.43
2022-10-15T20:11:51.911Z,12.80
2022-10-15T20:14:20.374Z,15.07
2022-10-15T20:16:48.924Z,22.30
2022-10-15T20:19:17.334Z,15.20
2022-10-15T20:21:45.801Z,29.03
2022-10-15T20:24:14.372Z,50.53
2022-10-15T20:26:44.203Z,20.53
2022-10-15T20:29:17.385Z,19.63
2022-10-15T20:31:45.908Z,13.60
2022-10-15T20:34:14.340Z,20.47
2022-10-15T20:36:42.930Z,28.67
2022-10-15T20:39:11.683Z,36.83
2022-10-15T20:41:40.227Z,35.87
2022-10-15T20:44:12.258Z,32.30
2022-10-15T20:46:45.167Z,55.73
2022-10-15T20:49:19.395Z,58.07
2022-10-15T20:51:48.545Z,30.60
2022-10-15T20:54:18.123Z,27.43
2022-10-15T20:56:47.151Z,29.30
2022-10-15T20:59:17.030Z,14.17
2022-10-15T21:01:46.469Z,11.70
2022-10-15T21:04:15.083Z,20.37
2022-10-15T21:06:43.569Z,22.27
2022-10-15T21:09:12.161Z,20.47
2022-10-15T21:11:42.722Z,26.47
2022-10-15T21:14:11.574Z,7.13
2022-10-15T21:16:41.753Z,15.87
2022-10-15T21:19:10.255Z,24.93
2022-10-15T21:21:39.299Z,19.43
2022-10-15T21:24:08.029Z,19.83
2022-10-15T21:26:36.510Z,9.93
2022-10-15T21:29:05.044Z,10.17
2022-10-15T21:31:33.621Z,18.20
2022-10-15T21:34:03.550Z,7.70
2022-10-15T21:36:32.040Z,6.20
2022-10-15T21:39:02.147Z,5.77
2022-10-15T21:41:33.371Z,6.23
2022-10-15T21:44:02.566Z,6.53
2022-10-15T21:46:31.807Z,6.43
2022-10-15T21:49:01.468Z,7.03
2022-10-15T21:51:33.447Z,13.67
2022-10-15T21:54:03.394Z,10.27
2022-10-15T21:56:32.200Z,14.53
2022-10-15T21:59:01.058Z,12.87
2022-10-15T22:01:32.119Z,24.43
2022-10-15T22:04:02.370Z,15.77
2022-10-15T22:06:32.960Z,12.57
2022-10-15T22:09:01.860Z,5.27
2022-10-15T22:11:31.891Z,7.97
2022-10-15T22:14:01.767Z,7.67
2022-10-15T22:16:30.519Z,5.77
2022-10-15T22:18:59.262Z,6.53
2022-10-15T22:21:29.585Z,8.43
2022-10-15T22:24:01.731Z,35.27
2022-10-15T22:26:32.411Z,14.10
2022-10-15T22:29:02.185Z,20.50
2022-10-15T22:31:31.070Z,30.53
2022-10-15T22:33:59.850Z,15.33
2022-10-15T22:36:29.677Z,18.90
2022-10-15T22:39:02.459Z,15.30
2022-10-15T22:41:34.247Z,24.23
2022-10-15T22:44:02.955Z,10.97
2022-10-15T22:46:33.963Z,12.83
2022-10-15T22:49:02.525Z,13.10
2022-10-15T22:51:30.974Z,17.53
2022-10-15T22:54:02.208Z,12.10
2022-10-15T22:56:31.726Z,10.67
2022-10-15T22:59:00.941Z,7.03
2022-10-15T23:01:31.790Z,7.90
2022-10-15T23:04:02.420Z,9.77
2022-10-15T23:06:32.011Z,9.73
2022-10-15T23:09:02.904Z,6.77
2022-10-15T23:11:33.066Z,11.43
2022-10-15T23:14:03.127Z,13.03
2022-10-15T23:16:33.593Z,8.73
2022-10-15T23:19:03.555Z,10.93
2022-10-15T23:21:35.087Z,8.87
2022-10-15T23:24:06.686Z,19.77
2022-10-15T23:26:35.314Z,10.03
2022-10-15T23:29:06.059Z,10.10
2022-10-15T23:31:37.246Z,9.00
2022-10-15T23:34:07.100Z,11.57
2022-10-15T23:36:35.957Z,11.30
2022-10-15T23:39:07.011Z,8.13
2022-10-15T23:41:35.590Z,8.00
2022-10-15T23:44:04.053Z,13.83
2022-10-15T23:46:32.597Z,13.90
2022-10-15T23:49:01.010Z,16.00
2022-10-15T23:51:31.506Z,5.97
2022-10-15T23:54:00.883Z,8.43
2022-10-15T23:56:32.044Z,10.37
2022-10-15T23:59:02.048Z,6.10
